Mobridge Municipal Airport
KMBG : now visible

Airfield :











YOU CAN JOIN US ON...

 
LOGIN :

Register | Disclaimer

   EN    FR    IT 

 









Legend :    VFR   Marginal VFR   IFR   Intensive IFR   Very Intensive IFR
Visi :
Ceiling :
>= 8 km
>= 3000ft
5 to 8 km
1000 to 3000 ft
1500m to 5 km
500 to 1000 ft
800 to 1500m
200 to 500 ft
< 800m
< 200 ft
Symbols :   Thunderstorms  Fog  Heavy snow  Heavy precipitations  Wind > 20 kt






- Airport Elevation : 1716 ft


KMBG - Mobridge Municipal

CURRENT METAR :
  • 220252Z AUTO 33012G19KT 10SM BKN046 BKN055 00/M06 A3010 RMK AO2 SLP215 T00001061 53023

EXPIRED METARs :
  • 220152Z AUTO 32004KT 10SM SCT055 M04/M07 A3007 RMK AO2 SLP209 T10391072
  • 220052Z AUTO 32009KT 10SM CLR 01/M06 A3005 RMK AO2 SLP200 T00061061
  • 212352Z AUTO 33011KT 10SM FEW048 FEW055 02/M05 A3003 RMK AO2 PK WND 32029/2301 SLP191 T00221050 10067 20011 53027

TAF KMBG
Valid from the 22 at 02:00 until the 23 at 00:00 UTC


220135Z 2202/2224 32010KT P6SM BKN150
FM220600 33015G22KT P6SM BKN150
FM221100 VRB06KT P6SM OVC040
FM221700 18011G17KT P6SM OVC035
FM222000 25015G25KT P6SM OVC025
KZMP FIR / North America



MET'MAP, your aeronautical weather chart ! - Copyright ORBIFLY December 2007 - Disclaimer

ORBIFLY MET'MAP TEAM :

Programming & Development : Alexandra Zaïnal
Concept & original design : Baudouin d'Aumeries
Assistance for programming : Marc-Olivier Méhu
Technical & hardware support : Manuel Goepfert

Contact : metmap@orbifly.com




SOURCES & CREDITS :

   NOAA       Earth
Advisory